Time;durP1;ratioP1;P1;durP2;ratioP2;P2;SDS_P1;SDS_P2;PMS_P1;PMS_P2;Temp;Humidity;BMP_temperature;BMP_pressure;BME280_temperature;BME280_humidity;BME280_pressure;Samples;Min_cycle;Max_cycle;Signal;HPM_P1;HPM_P2
2022/02/19 00:02:19;;;;;;;14.55;3.92;;;6.30;99.90;;;;;;5006568;28;20444;-62
2022/02/19 00:04:45;;;;;;;15.57;3.10;;;6.30;99.90;;;;;;5042792;28;20045;-62
2022/02/19 00:07:11;;;;;;;14.57;3.60;;;6.30;99.90;;;;;;5024613;28;20424;-70
2022/02/19 00:09:37;;;;;;;17.85;3.95;;;6.30;99.90;;;;;;5025882;28;20599;-61
2022/02/19 00:12:04;;;;;;;15.90;3.40;;;6.20;99.90;;;;;;5021653;28;20385;-62
2022/02/19 00:14:30;;;;;;;20.20;3.80;;;6.20;99.90;;;;;;5034022;28;20531;-70
2022/02/19 00:16:56;;;;;;;13.13;3.65;;;6.20;99.90;;;;;;5041652;28;20055;-62
2022/02/19 00:19:22;;;;;;;14.60;3.67;;;6.30;99.90;;;;;;5042612;28;20077;-69
2022/02/19 00:21:49;;;;;;;17.02;3.53;;;6.30;99.90;;;;;;5040292;28;20041;-70
2022/02/19 00:24:15;;;;;;;19.08;4.05;;;6.30;99.90;;;;;;5038440;28;20407;-70
2022/02/19 00:26:41;;;;;;;14.18;4.00;;;6.30;99.90;;;;;;5006197;28;20037;-69
2022/02/19 00:29:07;;;;;;;18.42;3.42;;;6.20;99.90;;;;;;5039365;28;20049;-70
2022/02/19 00:31:34;;;;;;;17.17;4.07;;;6.20;99.90;;;;;;5008138;28;20049;-61
2022/02/19 00:34:00;;;;;;;25.88;4.07;;;6.30;99.90;;;;;;5044635;28;20131;-62
2022/02/19 00:36:27;;;;;;;20.02;3.90;;;6.20;99.90;;;;;;5062775;28;20048;-71
2022/02/19 00:38:53;;;;;;;22.75;4.53;;;6.20;99.90;;;;;;5047464;28;20105;-69
2022/02/19 00:41:19;;;;;;;17.58;3.83;;;6.20;99.90;;;;;;5024189;28;20056;-70
2022/02/19 00:43:45;;;;;;;15.43;3.85;;;6.10;99.90;;;;;;5041239;28;20060;-61
2022/02/19 00:46:12;;;;;;;19.75;3.33;;;6.20;99.90;;;;;;5007648;28;20494;-70
2022/02/19 00:48:38;;;;;;;21.02;4.10;;;6.10;99.90;;;;;;5041393;28;20044;-70
2022/02/19 00:51:05;;;;;;;19.00;4.15;;;6.10;99.90;;;;;;5040856;28;20508;-61
2022/02/19 00:53:34;;;;;;;18.38;3.88;;;6.20;99.90;;;;;;5010031;28;20099;-70
2022/02/19 00:56:01;;;;;;;19.70;4.32;;;6.20;99.90;;;;;;5040656;28;20397;-70
2022/02/19 00:58:27;;;;;;;14.00;3.50;;;6.10;99.90;;;;;;5040443;28;20060;-70
2022/02/19 01:00:53;;;;;;;15.55;4.18;;;6.20;99.90;;;;;;5060574;28;20674;-70
2022/02/19 01:03:40;;;;;;;18.95;3.90;;;6.20;99.90;;;;;;5046005;28;20044;-70
2022/02/19 01:06:07;;;;;;;17.88;3.10;;;6.10;99.90;;;;;;5004580;28;20586;-70
2022/02/19 01:08:33;;;;;;;17.33;3.92;;;6.10;99.90;;;;;;5034824;28;20053;-61
2022/02/19 01:10:59;;;;;;;20.33;4.00;;;6.10;99.90;;;;;;5042389;28;20490;-62
2022/02/19 01:13:26;;;;;;;21.25;3.55;;;6.10;99.90;;;;;;5025615;28;20059;-62
2022/02/19 01:15:52;;;;;;;16.13;3.75;;;6.10;99.90;;;;;;5037008;28;20051;-62
2022/02/19 01:18:19;;;;;;;21.30;3.67;;;6.10;99.90;;;;;;5024042;28;20664;-61
2022/02/19 01:20:46;;;;;;;21.20;4.70;;;5.90;99.90;;;;;;5041399;28;20061;-62
2022/02/19 01:23:13;;;;;;;21.10;4.38;;;5.70;99.90;;;;;;5023458;28;20122;-69
2022/02/19 01:25:39;;;;;;;19.95;3.83;;;5.70;99.90;;;;;;5040223;28;20682;-69
2022/02/19 01:28:05;;;;;;;17.30;4.30;;;5.50;99.90;;;;;;5022843;28;20060;-69
2022/02/19 01:30:34;;;;;;;18.00;4.05;;;5.30;99.90;;;;;;5040179;28;20491;-69
2022/02/19 01:33:02;;;;;;;18.83;3.95;;;5.20;99.90;;;;;;5023396;28;20491;-60
2022/02/19 01:35:31;;;;;;;21.30;4.20;;;5.00;99.90;;;;;;5033268;28;20127;-60
2022/02/19 01:37:59;;;;;;;24.88;5.00;;;4.90;99.90;;;;;;5040176;28;20053;-68
2022/02/19 01:40:25;;;;;;;18.23;3.92;;;4.90;99.90;;;;;;5024962;28;20125;-60
2022/02/19 01:42:53;;;;;;;20.15;4.57;;;4.80;99.90;;;;;;5012973;28;20049;-60
2022/02/19 01:45:23;;;;;;;27.40;5.28;;;4.80;99.90;;;;;;5031475;28;20524;-60
2022/02/19 01:47:49;;;;;;;24.50;5.45;;;4.80;99.90;;;;;;4993592;28;20053;-60
2022/02/19 01:50:17;;;;;;;19.50;4.82;;;4.80;99.90;;;;;;5042883;28;20053;-60
2022/02/19 01:52:46;;;;;;;25.48;5.28;;;4.80;99.90;;;;;;5043839;28;20053;-60
2022/02/19 01:55:17;;;;;;;22.88;6.25;;;4.80;99.90;;;;;;5011516;28;20088;-59
2022/02/19 01:57:49;;;;;;;21.40;5.18;;;4.80;99.90;;;;;;5037605;28;20123;-60
2022/02/19 02:00:41;;;;;;;16.08;4.47;;;4.70;99.90;;;;;;5038817;28;20339;-60
2022/02/19 02:03:30;;;;;;;19.17;3.83;;;4.70;99.90;;;;;;5043282;28;20079;-60
2022/02/19 02:06:04;;;;;;;19.08;5.25;;;4.70;99.90;;;;;;5043853;28;20048;-60
2022/02/19 02:08:31;;;;;;;21.85;4.32;;;4.60;99.90;;;;;;5045944;28;20386;-60
2022/02/19 02:10:57;;;;;;;15.02;3.83;;;4.50;99.90;;;;;;5011138;28;20142;-60
2022/02/19 02:13:31;;;;;;;15.55;3.83;;;4.40;99.90;;;;;;5041633;28;20510;-60
2022/02/19 02:15:59;;;;;;;15.50;3.90;;;4.40;99.90;;;;;;5049084;28;20533;-59
2022/02/19 02:18:43;;;;;;;17.17;3.80;;;4.40;99.90;;;;;;5042157;28;20041;-60
2022/02/19 02:21:10;;;;;;;14.57;3.10;;;4.30;99.90;;;;;;5042907;28;20064;-60
2022/02/19 02:23:36;;;;;;;8.23;2.78;;;4.30;99.90;;;;;;5042476;28;20056;-60
2022/02/19 02:26:04;;;;;;;12.10;2.50;;;4.30;99.90;;;;;;5013927;28;20045;-61
2022/02/19 02:28:31;;;;;;;12.52;2.65;;;4.30;99.90;;;;;;5026612;28;20128;-60
2022/02/19 02:30:57;;;;;;;12.27;2.70;;;4.30;99.90;;;;;;5026206;28;20044;-61
2022/02/19 02:33:24;;;;;;;11.52;2.65;;;4.30;99.90;;;;;;5044432;28;20049;-62
2022/02/19 02:36:08;;;;;;;11.20;2.50;;;4.30;99.90;;;;;;5025542;28;20137;-60
2022/02/19 02:38:42;;;;;;;12.18;2.75;;;4.40;99.90;;;;;;5027178;28;20063;-60
2022/02/19 02:41:08;;;;;;;10.20;2.45;;;4.30;99.90;;;;;;5045540;28;20103;-60
2022/02/19 02:43:34;;;;;;;14.73;3.92;;;4.30;99.90;;;;;;5026868;28;20045;-60
2022/02/19 02:46:01;;;;;;;13.15;2.60;;;4.30;99.90;;;;;;5025398;28;20263;-60
2022/02/19 02:48:27;;;;;;;19.15;4.13;;;4.40;99.90;;;;;;5040772;28;20138;-61
2022/02/19 02:50:55;;;;;;;12.30;3.15;;;4.30;99.90;;;;;;5042299;28;20052;-66
2022/02/19 02:53:24;;;;;;;19.05;4.45;;;4.30;99.90;;;;;;5026709;28;20057;-60
2022/02/19 02:55:50;;;;;;;15.48;4.47;;;4.30;99.90;;;;;;5042515;28;20455;-67
2022/02/19 02:58:16;;;;;;;13.80;3.03;;;4.40;99.90;;;;;;5043324;28;20212;-59
2022/02/19 03:00:42;;;;;;;20.85;4.05;;;4.40;99.90;;;;;;5042402;28;20041;-59
2022/02/19 03:03:09;;;;;;;23.00;3.80;;;4.30;99.90;;;;;;5025566;28;20057;-59
2022/02/19 03:05:35;;;;;;;12.85;2.97;;;4.20;99.90;;;;;;5034476;28;20041;-67
2022/02/19 03:08:01;;;;;;;13.05;2.20;;;4.10;99.90;;;;;;5043853;28;20063;-60
2022/02/19 03:10:30;;;;;;;17.30;2.53;;;4.00;99.90;;;;;;5033139;28;20063;-60
2022/02/19 03:12:58;;;;;;;13.02;2.00;;;3.90;99.90;;;;;;5053983;28;20623;-60
2022/02/19 03:15:26;;;;;;;14.10;2.92;;;3.90;99.90;;;;;;5047550;28;20048;-69
2022/02/19 03:17:53;;;;;;;10.30;2.22;;;4.00;99.90;;;;;;5024306;28;20053;-59
2022/02/19 03:20:21;;;;;;;10.90;2.85;;;3.90;99.90;;;;;;5023645;28;20053;-66
2022/02/19 03:22:48;;;;;;;16.92;2.78;;;4.00;99.90;;;;;;5043032;28;20041;-67
2022/02/19 03:25:18;;;;;;;15.45;3.25;;;4.10;99.90;;;;;;5042074;28;20049;-67
2022/02/19 03:27:46;;;;;;;18.73;4.05;;;4.10;99.90;;;;;;5042676;28;20057;-59
2022/02/19 03:30:17;;;;;;;;;;;4.20;99.90;;;;;;5025979;28;20123;-67
2022/02/19 03:32:44;;;;;;;17.27;3.50;;;4.20;99.90;;;;;;5042504;28;19922;-67
2022/02/19 03:35:15;;;;;;;23.98;3.92;;;4.10;99.90;;;;;;5040884;28;20516;-60
2022/02/19 03:37:42;;;;;;;19.08;4.25;;;4.10;99.90;;;;;;5024803;28;20055;-68
2022/02/19 03:40:20;;;;;;;17.10;3.10;;;4.20;99.90;;;;;;5025637;28;20048;-68
2022/02/19 03:42:47;;;;;;;17.40;3.58;;;4.10;99.90;;;;;;5024256;28;20056;-66
2022/02/19 03:45:14;;;;;;;12.05;2.67;;;4.10;99.90;;;;;;5042358;28;20186;-59
2022/02/19 03:47:45;;;;;;;10.98;2.17;;;3.90;99.90;;;;;;5024962;28;20088;-60
2022/02/19 03:50:18;;;;;;;8.38;2.20;;;3.70;99.90;;;;;;5052992;28;20063;-67
2022/02/19 03:52:45;;;;;;;12.13;2.22;;;3.70;99.90;;;;;;5046484;28;20098;-68
2022/02/19 03:55:24;;;;;;;10.73;2.42;;;3.70;99.90;;;;;;5042983;28;20044;-60
2022/02/19 03:57:52;;;;;;;13.85;2.90;;;3.70;99.90;;;;;;5030358;28;20420;-67
2022/02/19 04:00:18;;;;;;;16.73;3.28;;;3.80;99.90;;;;;;5042326;28;20049;-67
2022/02/19 04:02:47;;;;;;;14.27;3.83;;;3.90;99.90;;;;;;5043606;28;20047;-59
2022/02/19 04:05:20;;;;;;;13.85;3.13;;;3.90;99.90;;;;;;5017307;28;20504;-60
2022/02/19 04:07:47;;;;;;;18.30;3.97;;;4.00;99.90;;;;;;5042483;28;20084;-59
2022/02/19 04:10:20;;;;;;;19.33;3.65;;;4.00;99.90;;;;;;5024642;28;20044;-60
2022/02/19 04:12:46;;;;;;;26.13;4.85;;;4.00;99.90;;;;;;5008911;28;20103;-59
2022/02/19 04:15:21;;;;;;;18.20;3.97;;;4.00;99.90;;;;;;5041971;28;20420;-59
2022/02/19 04:17:50;;;;;;;19.20;4.40;;;4.00;99.90;;;;;;5009389;28;20056;-59
2022/02/19 04:20:17;;;;;;;18.27;4.35;;;4.10;99.90;;;;;;5026084;28;20409;-59
2022/02/19 04:22:43;;;;;;;12.32;3.90;;;4.10;99.90;;;;;;5041601;28;20052;-67
2022/02/19 04:25:11;;;;;;;17.48;3.42;;;4.10;99.90;;;;;;5042500;28;20053;-67
2022/02/19 04:27:38;;;;;;;20.38;3.20;;;4.00;99.90;;;;;;5039222;28;20064;-67
2022/02/19 04:30:05;;;;;;;14.55;2.80;;;3.80;99.90;;;;;;5056501;28;20045;-67
2022/02/19 04:32:34;;;;;;;22.05;3.40;;;3.80;99.90;;;;;;5041927;28;20463;-67
2022/02/19 04:35:01;;;;;;;16.45;3.45;;;3.80;99.90;;;;;;5024115;28;20049;-67
2022/02/19 04:37:31;;;;;;;9.60;3.38;;;3.80;99.90;;;;;;5042204;28;20064;-67
2022/02/19 04:40:00;;;;;;;14.15;3.22;;;3.70;99.90;;;;;;5023623;28;20052;-67
2022/02/19 04:42:31;;;;;;;19.98;3.95;;;3.70;99.90;;;;;;5056297;28;20056;-67
2022/02/19 04:45:07;;;;;;;14.95;3.25;;;3.70;99.90;;;;;;5056016;28;20072;-66
2022/02/19 04:47:38;;;;;;;22.55;4.28;;;3.80;99.90;;;;;;5041334;28;20048;-67
2022/02/19 04:50:05;;;;;;;19.52;4.10;;;3.90;99.90;;;;;;5017681;28;20057;-67
2022/02/19 04:52:32;;;;;;;20.65;4.88;;;3.90;99.90;;;;;;5020914;28;20711;-67
2022/02/19 04:54:59;;;;;;;33.03;4.80;;;4.00;99.90;;;;;;5041816;28;20056;-67
2022/02/19 04:57:26;;;;;;;29.20;5.13;;;4.10;99.90;;;;;;5042847;28;20520;-67
2022/02/19 04:59:52;;;;;;;19.27;4.65;;;4.20;99.90;;;;;;5006902;28;20076;-67
2022/02/19 05:02:25;;;;;;;24.75;4.88;;;4.30;99.90;;;;;;5005512;28;20392;-67
2022/02/19 05:04:52;;;;;;;20.77;4.53;;;4.40;99.90;;;;;;5039667;28;20046;-67
2022/02/19 05:07:24;;;;;;;30.00;4.88;;;4.40;99.90;;;;;;5038270;28;20037;-68
2022/02/19 05:09:51;;;;;;;20.38;4.00;;;4.50;99.90;;;;;;5038568;28;20057;-67
2022/02/19 05:12:24;;;;;;;24.75;5.00;;;4.50;99.90;;;;;;5037369;28;20053;-59
2022/02/19 05:14:50;;;;;;;17.88;3.70;;;4.50;99.90;;;;;;5041276;28;20124;-59
2022/02/19 05:17:23;;;;;;;16.63;4.05;;;4.60;99.90;;;;;;5024761;28;20588;-59
2022/02/19 05:19:55;;;;;;;;;;;4.60;99.90;;;;;;5024007;28;20063;-68
2022/02/19 05:22:21;;;;;;;22.75;4.93;;;4.60;99.90;;;;;;5042898;28;19925;-68
2022/02/19 05:24:51;;;;;;;18.17;4.00;;;4.60;99.90;;;;;;5042122;28;20476;-68
2022/02/19 05:27:20;;;;;;;26.58;4.72;;;4.50;99.90;;;;;;5042753;28;20511;-67
2022/02/19 05:29:49;;;;;;;19.60;3.70;;;4.60;99.90;;;;;;5025166;28;20057;-68
2022/02/19 05:32:16;;;;;;;22.15;3.97;;;4.50;99.90;;;;;;5011470;28;20053;-68
2022/02/19 05:35:00;;;;;;;25.27;4.80;;;4.50;99.90;;;;;;5041845;28;20129;-67
2022/02/19 05:37:29;;;;;;;13.93;3.15;;;4.40;99.90;;;;;;5044074;28;20060;-68
2022/02/19 05:39:56;;;;;;;13.88;3.22;;;4.40;99.90;;;;;;4993087;28;20522;-68
2022/02/19 05:42:25;;;;;;;13.52;3.13;;;4.40;99.90;;;;;;5043247;28;20479;-68
2022/02/19 05:45:12;;;;;;;18.48;3.33;;;4.50;99.90;;;;;;5015189;28;20057;-68
2022/02/19 05:47:41;;;;;;;18.17;3.85;;;4.40;99.90;;;;;;5025957;28;20057;-67
2022/02/19 05:50:20;;;;;;;21.33;3.65;;;4.40;99.90;;;;;;5040057;28;20067;-68
2022/02/19 05:52:57;;;;;;;19.17;3.65;;;4.40;99.90;;;;;;5041345;28;20110;-68
2022/02/19 05:55:32;;;;;;;14.27;3.28;;;4.40;99.90;;;;;;5025424;28;20106;-68
2022/02/19 05:57:59;;;;;;;17.58;4.38;;;4.40;99.90;;;;;;5025975;28;20508;-68
2022/02/19 06:00:25;;;;;;;16.38;3.53;;;4.30;99.90;;;;;;5010532;28;20463;-68
2022/02/19 06:02:52;;;;;;;16.90;3.50;;;4.30;99.90;;;;;;5009365;28;20063;-68
2022/02/19 06:05:19;;;;;;;20.27;3.80;;;4.30;99.90;;;;;;5026330;28;20654;-68
2022/02/19 06:07:48;;;;;;;16.30;3.88;;;4.40;99.90;;;;;;5040761;28;20045;-59
2022/02/19 06:10:15;;;;;;;19.70;3.72;;;4.30;99.90;;;;;;4994089;28;20504;-60
2022/02/19 06:12:42;;;;;;;14.00;2.85;;;4.30;99.90;;;;;;5043520;28;20570;-61
2022/02/19 06:15:12;;;;;;;16.58;3.40;;;4.30;99.90;;;;;;5022190;28;20239;-60
2022/02/19 06:17:57;;;;;;;16.42;2.92;;;4.30;99.90;;;;;;5037443;28;20041;-60
2022/02/19 06:20:24;;;;;;;16.80;3.03;;;4.20;99.90;;;;;;5042190;28;20049;-60
2022/02/19 06:22:50;;;;;;;18.85;3.63;;;4.20;99.90;;;;;;5044051;28;20041;-60
2022/02/19 06:25:17;;;;;;;12.50;2.95;;;4.10;99.90;;;;;;5024283;28;20083;-60
2022/02/19 06:27:46;;;;;;;14.07;3.55;;;4.10;99.90;;;;;;5041840;28;20048;-60
2022/02/19 06:30:24;;;;;;;13.50;3.25;;;4.00;99.90;;;;;;5025591;28;20057;-60
2022/02/19 06:32:55;;;;;;;11.93;2.63;;;4.00;99.90;;;;;;5038901;28;20051;-60
2022/02/19 06:35:25;;;;;;;16.23;3.00;;;4.00;99.90;;;;;;5022576;28;20834;-63
2022/02/19 06:37:57;;;;;;;13.70;2.60;;;4.10;99.90;;;;;;5024568;28;20140;-60
2022/02/19 06:40:24;;;;;;;20.55;3.45;;;4.10;99.90;;;;;;5026768;28;20049;-60
2022/02/19 06:42:50;;;;;;;18.73;3.00;;;4.20;99.90;;;;;;5039699;28;20048;-60
2022/02/19 06:45:25;;;;;;;13.32;3.83;;;4.20;99.90;;;;;;5041480;28;20094;-60
2022/02/19 06:47:53;;;;;;;13.52;3.08;;;4.10;99.90;;;;;;5007875;28;20048;-61
2022/02/19 06:50:23;;;;;;;15.27;3.78;;;4.10;99.90;;;;;;5038792;28;20551;-61
2022/02/19 06:52:51;;;;;;;16.10;4.00;;;4.00;99.90;;;;;;5009538;28;20400;-61
2022/02/19 06:55:20;;;;;;;21.77;3.72;;;3.90;99.90;;;;;;5043151;28;20049;-60
2022/02/19 06:57:47;;;;;;;20.67;3.45;;;3.80;99.90;;;;;;5005995;28;20041;-65
2022/02/19 07:00:16;;;;;;;15.95;3.88;;;3.80;99.90;;;;;;5035946;28;20053;-61
2022/02/19 07:02:47;;;;;;;15.23;3.17;;;3.90;99.90;;;;;;5057798;28;20106;-62
2022/02/19 07:05:14;;;;;;;15.27;3.42;;;3.90;99.90;;;;;;5023737;28;20049;-61
2022/02/19 07:07:47;;;;;;;16.75;3.42;;;4.00;99.90;;;;;;5036175;28;20055;-61
2022/02/19 07:10:14;;;;;;;12.85;3.00;;;4.00;99.90;;;;;;5017523;28;20089;-61
2022/02/19 07:12:42;;;;;;;13.80;3.13;;;4.00;99.90;;;;;;5028748;28;20053;-62
2022/02/19 07:15:10;;;;;;;13.13;3.17;;;4.00;99.90;;;;;;5017243;28;20107;-60
2022/02/19 07:17:55;;;;;;;15.27;3.55;;;4.10;99.90;;;;;;5056148;28;20049;-61
2022/02/19 07:20:23;;;;;;;19.52;4.40;;;4.10;99.90;;;;;;5019982;28;20059;-61
2022/02/19 07:22:50;;;;;;;15.20;3.45;;;4.10;99.90;;;;;;5054942;28;20037;-61
2022/02/19 07:25:19;;;;;;;14.02;3.92;;;4.10;99.90;;;;;;5019007;28;20041;-61
2022/02/19 07:27:46;;;;;;;14.93;3.00;;;4.10;99.90;;;;;;5053065;28;20573;-60
2022/02/19 07:30:16;;;;;;;16.80;3.55;;;4.10;99.90;;;;;;5015437;28;20089;-59
2022/02/19 07:32:42;;;;;;;15.18;2.63;;;4.20;99.90;;;;;;5034086;28;20492;-61
2022/02/19 07:35:22;;;;;;;15.90;3.33;;;4.20;99.90;;;;;;5036077;28;20053;-62
2022/02/19 07:37:48;;;;;;;12.63;2.90;;;4.30;99.90;;;;;;5005644;28;20509;-62
2022/02/19 07:40:16;;;;;;;19.02;3.38;;;4.30;99.90;;;;;;5034813;28;20515;-62
2022/02/19 07:42:43;;;;;;;16.13;3.95;;;4.50;99.90;;;;;;5051921;28;20118;-62
2022/02/19 07:45:29;;;;;;;13.15;2.80;;;4.60;99.90;;;;;;5032016;28;20052;-61
2022/02/19 07:48:15;;;;;;;14.80;3.08;;;4.60;99.90;;;;;;5036822;28;20133;-60
2022/02/19 08:00:08;;;;;;;18.52;3.60;;;4.80;99.90;;;;;;5037868;28;20060;-61
2022/02/19 08:02:41;;;;;;;11.13;2.70;;;4.80;99.90;;;;;;5040241;28;20516;-62
2022/02/19 08:05:08;;;;;;;12.75;2.75;;;4.80;99.90;;;;;;5006568;28;20055;-62
2022/02/19 08:07:41;;;;;;;14.57;3.00;;;4.90;99.90;;;;;;5026337;28;20490;-63
2022/02/19 08:10:08;;;;;;;11.05;2.30;;;4.90;99.90;;;;;;5031711;28;20136;-62
2022/02/19 08:12:34;;;;;;;12.60;3.00;;;4.90;99.90;;;;;;5024903;28;20531;-61
2022/02/19 08:15:00;;;;;;;14.70;3.17;;;5.00;99.90;;;;;;5008242;28;20131;-60
2022/02/19 08:17:29;;;;;;;16.60;4.38;;;5.00;99.90;;;;;;5037897;28;20044;-60
2022/02/19 08:19:55;;;;;;;12.48;2.60;;;5.00;99.90;;;;;;5039936;28;20485;-62
2022/02/19 08:22:21;;;;;;;17.58;4.05;;;5.10;99.90;;;;;;5039343;28;20045;-61
2022/02/19 08:24:47;;;;;;;20.52;3.92;;;5.20;99.90;;;;;;5042680;28;20037;-60
2022/02/19 08:27:13;;;;;;;16.80;2.75;;;5.20;99.90;;;;;;5043227;28;20051;-60
2022/02/19 08:29:40;;;;;;;12.55;3.47;;;5.20;99.90;;;;;;5043260;28;20053;-61
2022/02/19 08:32:06;;;;;;;13.35;2.72;;;5.20;99.90;;;;;;5057969;28;20052;-61
2022/02/19 08:34:32;;;;;;;10.48;1.92;;;4.90;99.90;;;;;;5043065;28;20044;-60
2022/02/19 08:36:58;;;;;;;6.78;2.10;;;4.30;99.90;;;;;;5041265;28;20059;-59
2022/02/19 08:39:24;;;;;;;12.27;2.42;;;4.00;99.90;;;;;;5043603;28;20061;-59
2022/02/19 08:41:51;;;;;;;13.07;2.65;;;3.90;99.90;;;;;;5041348;28;20395;-60
2022/02/19 08:44:18;;;;;;;11.50;3.03;;;3.80;99.90;;;;;;5041363;28;20106;-58
2022/02/19 08:46:44;;;;;;;15.43;3.47;;;3.90;99.90;;;;;;5040066;28;20481;-61
2022/02/19 08:49:10;;;;;;;18.90;2.72;;;3.90;99.90;;;;;;5036860;28;20161;-59
2022/02/19 08:51:36;;;;;;;16.58;3.15;;;4.00;99.90;;;;;;5021313;28;20072;-59
2022/02/19 08:54:02;;;;;;;13.38;2.80;;;4.10;99.90;;;;;;5036756;28;20045;-59
2022/02/19 08:56:28;;;;;;;12.02;3.03;;;4.30;99.90;;;;;;5042413;28;20724;-68
2022/02/19 08:58:54;;;;;;;13.70;2.90;;;4.50;99.90;;;;;;5042070;28;20430;-68
2022/02/19 09:01:21;;;;;;;14.00;2.67;;;4.70;99.90;;;;;;5043216;28;20400;-69
2022/02/19 09:03:47;;;;;;;13.18;2.67;;;4.90;99.90;;;;;;5040775;28;20140;-70
2022/02/19 09:06:13;;;;;;;17.05;3.78;;;5.30;99.90;;;;;;5040472;28;20045;-69
2022/02/19 09:08:39;;;;;;;16.92;3.67;;;6.00;99.90;;;;;;5043981;28;20063;-69
2022/02/19 09:11:06;;;;;;;15.05;3.40;;;6.60;99.90;;;;;;5027834;28;20044;-70
2022/02/19 09:13:32;;;;;;;15.75;2.78;;;7.20;99.90;;;;;;5044713;28;20078;-70
2022/02/19 09:15:58;;;;;;;14.75;4.72;;;7.20;99.90;;;;;;5044917;28;20452;-70
2022/02/19 09:18:24;;;;;;;16.63;3.53;;;7.10;99.90;;;;;;5044217;28;20401;-69
2022/02/19 09:20:50;;;;;;;14.35;2.75;;;7.00;99.90;;;;;;5044885;28;20033;-70
2022/02/19 09:23:16;;;;;;;14.98;3.67;;;6.80;99.90;;;;;;5042477;28;20126;-70
2022/02/19 09:25:42;;;;;;;14.57;3.10;;;6.80;99.90;;;;;;5025134;28;20558;-70
2022/02/19 09:28:08;;;;;;;11.45;3.13;;;6.80;99.90;;;;;;5043831;28;20055;-70
2022/02/19 09:30:34;;;;;;;13.13;3.97;;;6.80;99.90;;;;;;5043363;28;20056;-61
2022/02/19 09:33:02;;;;;;;18.40;3.55;;;7.00;99.90;;;;;;5038727;28;20045;-62
2022/02/19 09:35:29;;;;;;;15.32;3.72;;;7.50;99.90;;;;;;5040930;28;20041;-61
2022/02/19 09:37:55;;;;;;;13.80;3.95;;;7.90;99.90;;;;;;5043469;28;20212;-61
2022/02/19 09:40:21;;;;;;;13.98;3.50;;;8.50;99.90;;;;;;5023654;28;20058;-61
2022/02/19 09:42:50;;;;;;;19.45;5.55;;;8.60;99.90;;;;;;5038309;28;20044;-61
2022/02/19 09:45:17;;;;;;;17.65;3.50;;;8.60;99.90;;;;;;5024305;28;20041;-61
2022/02/19 09:47:44;;;;;;;15.48;3.40;;;7.80;99.90;;;;;;5043527;28;20044;-61
2022/02/19 09:50:11;;;;;;;18.48;3.55;;;7.60;99.90;;;;;;5044322;28;20053;-62
2022/02/19 09:52:38;;;;;;;14.27;3.05;;;7.80;99.90;;;;;;5039760;28;20154;-62
2022/02/19 09:55:05;;;;;;;15.73;3.47;;;8.60;99.90;;;;;;5040053;28;20140;-71
2022/02/19 09:57:32;;;;;;;14.98;3.45;;;8.50;99.90;;;;;;5041284;28;20088;-71
2022/02/19 09:59:58;;;;;;;16.70;3.00;;;8.00;99.90;;;;;;5027588;28;20049;-63
2022/02/19 10:02:32;;;;;;;18.70;4.10;;;8.10;99.90;;;;;;5042144;28;20049;-63
2022/02/19 10:05:12;;;;;;;15.43;4.32;;;8.50;99.90;;;;;;5046849;28;20126;-63
2022/02/19 10:07:39;;;;;;;14.13;3.17;;;9.20;99.90;;;;;;5032813;28;20068;-63
2022/02/19 10:10:06;;;;;;;13.93;3.42;;;9.70;99.90;;;;;;5045774;28;20049;-62
2022/02/19 10:12:46;;;;;;;16.55;3.47;;;9.30;99.90;;;;;;5042765;28;20053;-62
2022/02/19 10:15:12;;;;;;;15.73;3.45;;;8.60;99.90;;;;;;5038164;28;20056;-62
2022/02/19 10:17:39;;;;;;;15.98;3.67;;;8.00;99.90;;;;;;5022878;28;20127;-71
2022/02/19 10:20:07;;;;;;;12.38;4.47;;;7.80;99.90;;;;;;5044945;28;20060;-62
2022/02/19 10:22:42;;;;;;;18.27;4.07;;;7.60;99.90;;;;;;5025783;28;20064;-62
2022/02/19 10:25:17;;;;;;;15.13;3.97;;;7.20;99.90;;;;;;5043592;28;20045;-62
2022/02/19 10:28:00;;;;;;;17.25;3.85;;;7.30;99.90;;;;;;5040013;28;20522;-63
2022/02/19 10:30:27;;;;;;;16.92;3.95;;;7.40;99.90;;;;;;5025281;28;20033;-62
2022/02/19 10:33:03;;;;;;;20.92;3.00;;;7.20;99.90;;;;;;5041545;28;20037;-62
2022/02/19 10:35:32;;;;;;;20.25;3.90;;;7.20;99.90;;;;;;5035661;28;20083;-62
2022/02/19 10:38:01;;;;;;;18.73;3.38;;;7.20;99.90;;;;;;5049516;28;20056;-70
2022/02/19 10:40:27;;;;;;;17.55;3.55;;;7.10;99.90;;;;;;5027331;28;20060;-70
2022/02/19 10:42:57;;;;;;;15.15;3.15;;;7.10;99.90;;;;;;5057165;28;20053;-70
2022/02/19 10:45:24;;;;;;;17.70;3.17;;;7.10;99.90;;;;;;5040706;28;20048;-71
2022/02/19 10:47:53;;;;;;;15.00;4.07;;;7.40;99.90;;;;;;5039987;28;20135;-71
2022/02/19 10:50:20;;;;;;;18.33;3.78;;;7.70;99.90;;;;;;5042728;28;20561;-63
2022/02/19 10:52:55;;;;;;;15.93;3.88;;;7.80;99.90;;;;;;5043838;28;20435;-62
2022/02/19 10:55:28;;;;;;;13.80;3.00;;;7.60;99.90;;;;;;5044076;28;20134;-62
2022/02/19 10:58:02;;;;;;;16.58;3.53;;;8.30;99.90;;;;;;5042091;28;20076;-62
2022/02/19 11:00:32;;;;;;;14.55;2.92;;;8.10;99.90;;;;;;5042218;28;20411;-71
2022/02/19 11:02:59;;;;;;;13.93;3.33;;;7.80;99.90;;;;;;5025132;28;20543;-71
2022/02/19 11:05:25;;;;;;;11.02;2.78;;;7.70;99.90;;;;;;5041701;28;20567;-71
2022/02/19 11:07:52;;;;;;;14.00;3.00;;;7.50;99.90;;;;;;5043708;28;20056;-71
2022/02/19 11:10:22;;;;;;;9.05;2.25;;;7.40;99.90;;;;;;5040498;28;20053;-71
2022/02/19 11:12:48;;;;;;;16.02;2.60;;;7.30;99.90;;;;;;5030572;28;20048;-71
2022/02/19 11:15:20;;;;;;;13.63;2.60;;;7.20;99.90;;;;;;5041912;28;20060;-62
2022/02/19 11:17:48;;;;;;;18.98;3.75;;;7.30;99.90;;;;;;5006119;28;20053;-71
2022/02/19 11:20:15;;;;;;;12.13;2.90;;;7.30;99.90;;;;;;5031904;28;20589;-71
2022/02/19 11:22:43;;;;;;;10.95;2.83;;;7.30;99.90;;;;;;5042318;28;20049;-62
2022/02/19 11:25:13;;;;;;;11.93;2.80;;;7.30;99.90;;;;;;5037268;28;20052;-62
2022/02/19 11:27:49;;;;;;;15.73;3.40;;;7.30;99.90;;;;;;5042642;28;20117;-62
2022/02/19 11:30:15;;;;;;;10.60;1.90;;;7.30;99.90;;;;;;5042608;28;20094;-62
2022/02/19 11:32:43;;;;;;;12.60;3.28;;;7.60;99.90;;;;;;5042155;28;20465;-63
2022/02/19 11:35:10;;;;;;;13.38;2.92;;;8.70;99.90;;;;;;5042129;28;20573;-63
2022/02/19 11:37:42;;;;;;;17.05;3.00;;;9.00;99.90;;;;;;5039807;28;20497;-63
2022/02/19 11:40:14;;;;;;;8.55;2.38;;;8.80;99.90;;;;;;5037103;28;21404;-63
2022/02/19 11:42:44;;;;;;;14.65;3.25;;;8.30;99.90;;;;;;5033916;28;20041;-63
2022/02/19 11:45:30;;;;;;;12.25;2.75;;;7.90;99.90;;;;;;5035009;28;20422;-62
2022/02/19 11:48:02;;;;;;;13.13;2.47;;;7.60;99.90;;;;;;4992154;28;20520;-62
2022/02/19 11:50:30;;;;;;;13.90;3.42;;;7.50;99.90;;;;;;5032043;28;20059;-63
2022/02/19 11:53:12;;;;;;;9.55;2.80;;;7.50;99.90;;;;;;5037873;28;20044;-62
2022/02/19 11:55:45;;;;;;;9.98;2.55;;;7.60;99.90;;;;;;5043159;28;20103;-63
2022/02/19 11:58:12;;;;;;;11.20;3.00;;;7.50;99.90;;;;;;5059631;28;20057;-62
2022/02/19 12:00:44;;;;;;;11.73;2.88;;;8.30;99.90;;;;;;5040200;28;20151;-63
2022/02/19 12:03:31;;;;;;;6.35;1.90;;;8.40;99.90;;;;;;5048715;28;20508;-62
2022/02/19 12:06:14;;;;;;;11.23;2.72;;;8.70;99.90;;;;;;5042837;28;20567;-65
2022/02/19 12:08:49;;;;;;;12.93;4.00;;;9.00;99.90;;;;;;5042519;28;20177;-62
2022/02/19 12:11:23;;;;;;;11.93;3.00;;;10.00;99.90;;;;;;5035237;28;20056;-60
2022/02/19 12:14:00;;;;;;;25.48;13.98;;;10.10;99.90;;;;;;5037097;28;20057;-59
2022/02/19 12:18:59;;;;;;;9.10;2.75;;;9.30;99.90;;;;;;5041220;28;20091;-60
2022/02/19 12:21:36;;;;;;;12.07;2.40;;;9.20;99.90;;;;;;5042401;28;20114;-60
2022/02/19 12:24:16;;;;;;;9.50;2.58;;;9.00;99.90;;;;;;5040552;28;20045;-62
2022/02/19 12:27:12;;;;;;;8.88;2.30;;;9.90;99.90;;;;;;5041940;28;20056;-68
2022/02/19 12:29:40;;;;;;;11.65;2.35;;;10.50;99.90;;;;;;5035592;28;20832;-68
2022/02/19 12:32:10;;;;;;;10.48;2.35;;;11.10;97.40;;;;;;5038235;28;20044;-69
2022/02/19 12:34:37;;;;;;;9.00;2.10;;;11.80;68.60;;;;;;5041272;28;20052;-66
2022/02/19 12:37:05;;;;;;;11.75;2.88;;;11.80;70.30;;;;;;5044032;28;20264;-60
2022/02/19 12:39:40;;;;;;;10.43;4.45;;;11.50;72.20;;;;;;5040928;28;20057;-59
2022/02/19 12:42:06;;;;;;;9.68;2.47;;;11.00;71.40;;;;;;5041955;28;20037;-62
2022/02/19 12:44:33;;;;;;;12.93;2.25;;;10.60;68.80;;;;;;5026998;28;20565;-62
2022/02/19 12:47:00;;;;;;;10.57;2.15;;;10.80;85.50;;;;;;5043684;28;20518;-62
2022/02/19 12:49:26;;;;;;;11.05;2.20;;;10.90;74.70;;;;;;5042960;28;20045;-62
2022/02/19 12:51:54;;;;;;;10.82;2.42;;;11.30;75.60;;;;;;5036101;28;20186;-67
2022/02/19 12:54:38;;;;;;;9.55;2.30;;;10.90;70.40;;;;;;5040316;28;20488;-68
2022/02/19 12:57:09;;;;;;;8.57;2.72;;;10.70;65.80;;;;;;5039921;28;20500;-67
2022/02/19 12:59:39;;;;;;;10.80;2.28;;;10.80;66.50;;;;;;5022921;28;20044;-62
2022/02/19 13:02:07;;;;;;;11.40;2.08;;;11.10;65.70;;;;;;5024576;28;20048;-62
2022/02/19 13:04:41;;;;;;;11.20;2.72;;;11.60;69.50;;;;;;5039131;28;20561;-61
2022/02/19 13:07:10;;;;;;;11.77;2.80;;;10.70;67.90;;;;;;5041997;28;20348;-61
2022/02/19 13:09:36;;;;;;;11.52;2.58;;;10.00;76.70;;;;;;5055426;28;20307;-62
2022/02/19 13:12:05;;;;;;;13.23;3.17;;;9.70;95.70;;;;;;5025169;28;20110;-67